createdAt,value
2019-06-01T00:00:11.616Z,77.83
2019-06-01T00:02:57.036Z,78.26
2019-06-01T00:05:43.164Z,78.24
2019-06-01T00:08:29.399Z,78.93
2019-06-01T00:11:15.594Z,79.01
2019-06-01T00:14:01.802Z,79.09
2019-06-01T00:16:48.208Z,79.16
2019-06-01T00:19:34.404Z,79.22
2019-06-01T00:22:20.514Z,79.61
2019-06-01T00:25:06.855Z,79.68
2019-06-01T00:27:52.938Z,80.03
2019-06-01T00:30:39.234Z,80.57
2019-06-01T00:33:25.260Z,80.53
2019-06-01T00:36:11.460Z,80.62
2019-06-01T00:38:57.588Z,80.70
2019-06-01T00:41:43.985Z,81.04
2019-06-01T00:44:30.040Z,81.16
2019-06-01T00:47:16.399Z,80.93
2019-06-01T00:50:02.639Z,81.08
2019-06-01T00:52:49.269Z,80.98
2019-06-01T00:55:35.484Z,81.15
2019-06-01T00:58:21.759Z,81.01
2019-06-01T01:01:07.960Z,81.29
2019-06-01T01:03:54.468Z,81.46
2019-06-01T01:06:40.650Z,81.54
2019-06-01T01:09:26.779Z,81.53
2019-06-01T01:12:12.864Z,81.25
2019-06-01T01:14:58.959Z,80.91
2019-06-01T01:17:45.748Z,80.54
2019-06-01T01:20:32.210Z,80.24
2019-06-01T01:23:18.522Z,80.21
2019-06-01T01:26:04.751Z,79.77
2019-06-01T01:28:51.039Z,79.51
2019-06-01T01:31:36.964Z,79.41
2019-06-01T01:34:23.469Z,79.44
2019-06-01T01:37:09.805Z,79.43
2019-06-01T01:39:56.293Z,79.71
2019-06-01T01:42:42.830Z,79.89
2019-06-01T01:45:29.069Z,79.97
2019-06-01T01:48:15.265Z,79.96
2019-06-01T01:51:02.722Z,80.18
2019-06-01T01:53:50.479Z,80.19
2019-06-01T01:56:37.014Z,80.52
2019-06-01T01:59:23.359Z,80.59
2019-06-01T02:02:09.495Z,80.87
2019-06-01T02:04:55.897Z,81.06
2019-06-01T02:07:42.124Z,81.49
2019-06-01T02:10:28.139Z,81.64
2019-06-01T02:13:14.444Z,81.65
2019-06-01T02:16:00.971Z,81.59
2019-06-01T02:18:48.871Z,81.64
2019-06-01T02:21:35.084Z,81.73
2019-06-01T02:24:21.205Z,81.76
2019-06-01T02:27:07.383Z,81.59
2019-06-01T02:29:53.569Z,81.84
2019-06-01T02:32:39.583Z,81.77
2019-06-01T02:35:25.880Z,82.16
2019-06-01T02:38:12.426Z,82.51
2019-06-01T02:40:58.968Z,82.70
2019-06-01T02:43:45.650Z,82.64
2019-06-01T02:46:35.428Z,82.71
2019-06-01T02:49:22.012Z,82.66
2019-06-01T02:52:08.064Z,82.63
2019-06-01T02:54:55.532Z,82.94
2019-06-01T02:57:42.179Z,83.25
2019-06-01T03:01:22.225Z,83.69
2019-06-01T03:04:09.668Z,83.66
2019-06-01T03:06:55.944Z,83.60
2019-06-01T03:09:42.294Z,83.84
2019-06-01T03:12:29.678Z,83.80
2019-06-01T03:15:16.741Z,84.15
2019-06-01T03:18:03.744Z,84.33
2019-06-01T03:20:50.462Z,84.44
2019-06-01T03:23:38.484Z,84.01
2019-06-01T03:26:26.099Z,83.76
2019-06-01T03:29:14.491Z,83.49
2019-06-01T03:32:19.315Z,83.39
2019-06-01T03:34:48.980Z,83.13
2019-06-01T03:37:35.289Z,82.51
2019-06-01T03:40:24.018Z,81.27
2019-06-01T03:43:09.884Z,80.38
2019-06-01T03:45:55.924Z,78.68
2019-06-01T03:48:42.049Z,77.63
2019-06-01T03:51:28.229Z,76.85
2019-06-01T03:54:14.621Z,75.45
2019-06-01T03:57:00.975Z,74.81
2019-06-01T03:59:47.114Z,74.01
2019-06-01T04:02:33.560Z,73.96
2019-06-01T04:05:19.599Z,72.85
2019-06-01T04:08:05.863Z,72.05
2019-06-01T04:10:52.042Z,72.22
2019-06-01T04:13:38.184Z,71.83
2019-06-01T04:16:24.325Z,71.20
2019-06-01T04:19:10.725Z,72.31
2019-06-01T04:21:56.988Z,71.31
2019-06-01T04:24:43.329Z,70.90
2019-06-01T04:27:29.532Z,69.64
2019-06-01T04:30:15.668Z,68.10
2019-06-01T04:33:02.591Z,66.42
2019-06-01T04:35:48.928Z,65.29
2019-06-01T04:38:37.149Z,64.85
2019-06-01T04:41:23.503Z,64.84
2019-06-01T04:44:10.060Z,64.33
2019-06-01T04:46:56.705Z,63.45
2019-06-01T04:49:43.067Z,61.73
2019-06-01T04:52:29.399Z,61.70
2019-06-01T04:55:15.349Z,61.62
2019-06-01T04:58:02.512Z,63.38
2019-06-01T05:00:48.961Z,60.77
2019-06-01T05:03:34.968Z,60.77
2019-06-01T05:06:21.625Z,60.81
2019-06-01T05:09:09.167Z,58.36
2019-06-01T05:11:55.464Z,56.54
2019-06-01T05:14:42.129Z,52.85
2019-06-01T05:17:28.714Z,52.47
2019-06-01T05:20:16.633Z,52.39
2019-06-01T05:23:03.449Z,51.82
2019-06-01T05:25:53.156Z,51.03
2019-06-01T05:28:38.034Z,50.78
2019-06-01T05:31:25.226Z,47.77
2019-06-01T05:34:11.959Z,47.88
2019-06-01T05:36:58.215Z,48.47
2019-06-01T05:39:44.404Z,49.51
2019-06-01T05:42:31.192Z,50.36
2019-06-01T05:45:19.288Z,51.31
2019-06-01T05:48:06.070Z,51.50
2019-06-01T05:50:52.564Z,51.51
2019-06-01T05:53:38.719Z,50.39
2019-06-01T05:56:25.410Z,48.54
2019-06-01T05:59:12.310Z,49.21
2019-06-01T06:01:58.996Z,48.72
2019-06-01T06:04:45.714Z,48.60
2019-06-01T06:07:32.426Z,46.10
2019-06-01T06:10:19.861Z,46.85
2019-06-01T06:13:06.739Z,46.19
2019-06-01T06:15:53.559Z,46.05
2019-06-01T06:18:39.849Z,46.04
2019-06-01T06:21:26.158Z,45.53
2019-06-01T06:24:12.804Z,45.77
2019-06-01T06:26:58.858Z,44.60
2019-06-01T06:29:44.966Z,44.79
2019-06-01T06:32:31.328Z,45.95
2019-06-01T06:35:17.481Z,45.19
2019-06-01T06:38:03.644Z,46.20
2019-06-01T06:40:49.804Z,46.47
2019-06-01T06:43:35.980Z,46.12
2019-06-01T06:46:22.801Z,46.25
2019-06-01T06:49:10.049Z,45.91
2019-06-01T06:51:56.719Z,44.39
2019-06-01T06:54:42.911Z,44.65
2019-06-01T06:57:28.969Z,44.35
2019-06-01T07:00:16.297Z,44.80
2019-06-01T07:03:03.083Z,41.97
2019-06-01T07:05:49.144Z,42.20
2019-06-01T07:08:35.303Z,41.45
2019-06-01T07:11:21.582Z,42.59
2019-06-01T07:14:07.625Z,43.65
2019-06-01T07:16:53.819Z,43.11
2019-06-01T07:19:40.304Z,42.42
2019-06-01T07:22:27.813Z,42.62
2019-06-01T07:25:14.387Z,44.07
2019-06-01T07:28:00.778Z,42.75
2019-06-01T07:30:50.435Z,43.13
2019-06-01T07:33:35.069Z,43.52
2019-06-01T07:36:22.244Z,41.88
2019-06-01T07:39:08.584Z,41.62
2019-06-01T07:41:54.733Z,40.67
2019-06-01T07:44:42.109Z,40.31
2019-06-01T07:47:29.171Z,41.57
2019-06-01T07:50:15.363Z,42.68
2019-06-01T07:53:01.829Z,42.82
2019-06-01T07:55:47.914Z,41.46
2019-06-01T07:58:34.219Z,42.24
2019-06-01T08:01:22.782Z,43.09
2019-06-01T08:04:09.797Z,41.46
2019-06-01T08:06:56.297Z,43.24
2019-06-01T08:09:43.067Z,42.43
2019-06-01T08:12:29.818Z,41.93
2019-06-01T08:15:17.340Z,41.83
2019-06-01T08:18:03.589Z,42.49
2019-06-01T08:20:50.128Z,42.37
2019-06-01T08:23:36.688Z,41.63
2019-06-01T08:26:24.298Z,41.46
2019-06-01T08:29:10.733Z,41.78
2019-06-01T08:31:57.176Z,41.44
2019-06-01T08:34:44.766Z,42.92
2019-06-01T08:37:31.664Z,44.63
2019-06-01T08:40:18.453Z,44.14
2019-06-01T08:43:04.875Z,42.23
2019-06-01T08:45:51.511Z,42.07
2019-06-01T08:48:37.985Z,42.99
2019-06-01T08:51:26.491Z,40.88
2019-06-01T08:54:13.734Z,40.98
2019-06-01T08:57:00.255Z,40.44
2019-06-01T08:59:46.471Z,41.87
2019-06-01T09:02:32.874Z,43.59
2019-06-01T09:05:24.400Z,42.00
2019-06-01T09:08:10.244Z,42.62
2019-06-01T09:10:56.531Z,43.03
2019-06-01T09:13:43.334Z,42.61
2019-06-01T09:16:29.710Z,40.54
2019-06-01T09:19:15.945Z,40.66
2019-06-01T09:22:02.226Z,40.54
2019-06-01T09:24:48.429Z,42.17
2019-06-01T09:27:35.995Z,41.63
2019-06-01T09:30:22.466Z,42.39
2019-06-01T09:33:08.480Z,43.17
2019-06-01T09:35:56.375Z,43.09
2019-06-01T09:38:43.016Z,43.11
2019-06-01T09:41:29.099Z,42.84
2019-06-01T09:44:15.332Z,43.04
2019-06-01T09:47:01.455Z,43.68
2019-06-01T09:49:47.589Z,43.62
2019-06-01T09:52:33.750Z,42.21
2019-06-01T09:55:19.640Z,41.12
2019-06-01T09:58:05.822Z,41.32
2019-06-01T10:00:52.210Z,41.14
2019-06-01T10:03:38.575Z,41.50
2019-06-01T10:06:24.936Z,41.63
2019-06-01T10:09:11.329Z,41.58
2019-06-01T10:11:58.552Z,42.11
2019-06-01T10:14:44.797Z,42.63
2019-06-01T10:17:33.300Z,42.10
2019-06-01T10:20:20.439Z,41.88
2019-06-01T10:23:09.144Z,42.51
2019-06-01T10:25:55.569Z,43.82
2019-06-01T10:28:43.166Z,41.98
2019-06-01T10:31:32.620Z,41.24
2019-06-01T10:34:17.773Z,41.02
2019-06-01T10:37:04.133Z,41.39
2019-06-01T10:39:50.560Z,43.69
2019-06-01T10:42:38.491Z,43.80
2019-06-01T10:45:27.085Z,42.79
2019-06-01T10:48:13.445Z,43.25
2019-06-01T10:50:59.610Z,43.78
2019-06-01T10:53:45.731Z,42.94
2019-06-01T10:56:32.331Z,41.88
2019-06-01T10:59:18.693Z,41.03
2019-06-01T11:02:04.809Z,39.98
2019-06-01T11:04:51.943Z,41.67
2019-06-01T11:07:39.244Z,41.22
2019-06-01T11:10:25.359Z,40.72
2019-06-01T11:13:11.557Z,41.01
2019-06-01T11:15:57.858Z,41.85
2019-06-01T11:18:43.990Z,43.87
2019-06-01T11:21:30.105Z,43.30
2019-06-01T11:24:17.245Z,42.47
2019-06-01T11:27:04.704Z,43.44
2019-06-01T11:29:51.685Z,42.47
2019-06-01T11:32:39.987Z,42.05
2019-06-01T11:35:26.567Z,43.31
2019-06-01T11:38:12.841Z,42.67
2019-06-01T11:40:58.921Z,43.28
2019-06-01T11:43:46.137Z,44.65
2019-06-01T11:46:32.802Z,44.38
2019-06-01T11:49:21.078Z,44.21
2019-06-01T11:52:07.201Z,45.18
2019-06-01T11:54:54.596Z,45.10
2019-06-01T11:57:41.589Z,45.55
2019-06-01T12:00:29.315Z,45.98
2019-06-01T12:03:15.563Z,47.81
2019-06-01T12:06:01.702Z,46.63
2019-06-01T12:08:48.863Z,45.67
2019-06-01T12:11:36.216Z,44.13
2019-06-01T12:14:22.182Z,43.51
2019-06-01T12:17:08.324Z,44.97
2019-06-01T12:19:54.476Z,44.54
2019-06-01T12:22:40.896Z,45.01
2019-06-01T12:25:26.896Z,44.45
2019-06-01T12:28:14.468Z,44.79
2019-06-01T12:31:01.061Z,45.78
2019-06-01T12:33:48.195Z,45.17
2019-06-01T12:36:35.395Z,45.50
2019-06-01T12:39:21.425Z,46.37
2019-06-01T12:42:07.705Z,44.32
2019-06-01T12:44:54.092Z,44.22
2019-06-01T12:47:40.361Z,43.51
2019-06-01T12:50:27.621Z,43.54
2019-06-01T12:53:14.161Z,43.33
2019-06-01T12:56:00.541Z,43.55
2019-06-01T12:58:48.066Z,45.17
2019-06-01T13:01:34.591Z,44.56
2019-06-01T13:04:20.921Z,43.64
2019-06-01T13:07:07.256Z,43.14
2019-06-01T13:09:53.586Z,44.22
2019-06-01T13:12:40.987Z,42.99
2019-06-01T13:15:27.427Z,44.25
2019-06-01T13:18:14.865Z,44.01
2019-06-01T13:21:02.202Z,43.70
2019-06-01T13:23:49.656Z,43.47
2019-06-01T13:26:36.248Z,44.44
2019-06-01T13:29:22.505Z,44.60
2019-06-01T13:32:08.841Z,44.52
2019-06-01T13:34:55.001Z,43.43
2019-06-01T13:37:42.356Z,44.35
2019-06-01T13:40:28.752Z,44.48
2019-06-01T13:43:15.096Z,43.82
2019-06-01T13:46:01.084Z,45.96
2019-06-01T13:48:47.539Z,44.33
2019-06-01T13:51:33.869Z,45.76
2019-06-01T13:54:21.099Z,44.18
2019-06-01T13:57:08.316Z,44.83
2019-06-01T13:59:55.037Z,44.79
2019-06-01T14:02:41.246Z,44.23
2019-06-01T14:05:27.391Z,43.78
2019-06-01T14:08:27.921Z,42.52
2019-06-01T14:11:04.089Z,42.90
2019-06-01T14:13:50.165Z,43.33
2019-06-01T14:16:36.379Z,43.65
2019-06-01T14:19:22.472Z,43.72
2019-06-01T14:22:08.605Z,43.17
2019-06-01T14:25:10.345Z,44.11
2019-06-01T14:27:43.681Z,44.67
2019-06-01T14:30:29.897Z,44.03
2019-06-01T14:33:16.224Z,43.81
2019-06-01T14:36:02.321Z,42.93
2019-06-01T14:38:50.360Z,43.45
2019-06-01T14:41:36.761Z,42.94
2019-06-01T14:44:22.893Z,44.60
2019-06-01T14:47:09.086Z,43.01
2019-06-01T14:49:55.738Z,44.51
2019-06-01T14:52:42.496Z,43.30
2019-06-01T14:55:28.617Z,43.07
2019-06-01T14:58:14.876Z,44.33
2019-06-01T15:01:01.051Z,42.39
2019-06-01T15:03:48.139Z,43.28
2019-06-01T15:06:34.521Z,43.38
2019-06-01T15:09:20.850Z,41.82
2019-06-01T15:12:07.492Z,42.12
2019-06-01T15:14:53.831Z,42.83
2019-06-01T15:17:39.881Z,44.27
2019-06-01T15:20:28.611Z,44.25
2019-06-01T15:23:14.922Z,42.84
2019-06-01T15:26:01.121Z,44.48
2019-06-01T15:28:47.262Z,43.09
2019-06-01T15:31:33.691Z,42.64
2019-06-01T15:34:19.881Z,41.74
2019-06-01T15:37:06.047Z,42.73
2019-06-01T15:39:54.574Z,41.94
2019-06-01T15:42:40.911Z,41.91
2019-06-01T15:45:27.160Z,42.91
2019-06-01T15:48:13.502Z,43.02
2019-06-01T15:51:05.415Z,42.66
2019-06-01T15:53:48.783Z,42.57
2019-06-01T15:56:38.028Z,44.54
2019-06-01T15:59:25.459Z,43.59
2019-06-01T16:02:11.522Z,43.45
2019-06-01T16:04:59.185Z,43.12
2019-06-01T16:07:45.652Z,42.39
2019-06-01T16:10:31.911Z,42.58
2019-06-01T16:13:17.816Z,42.40
2019-06-01T16:16:05.235Z,43.29
2019-06-01T16:18:51.739Z,42.81
2019-06-01T16:21:38.835Z,43.43
2019-06-01T16:24:25.140Z,42.81
2019-06-01T16:27:12.156Z,43.15
2019-06-01T16:30:00.202Z,43.51
2019-06-01T16:32:46.763Z,43.78
2019-06-01T16:35:32.801Z,43.16
2019-06-01T16:38:19.039Z,43.47
2019-06-01T16:41:05.587Z,44.17
2019-06-01T16:43:51.667Z,44.03
2019-06-01T16:46:39.914Z,42.69
2019-06-01T16:49:27.351Z,42.68
2019-06-01T16:52:13.702Z,42.65
2019-06-01T16:55:00.487Z,43.28
2019-06-01T16:57:46.722Z,43.15
2019-06-01T17:00:33.943Z,44.13
2019-06-01T17:03:20.417Z,44.56
2019-06-01T17:06:06.914Z,44.45
2019-06-01T17:08:53.096Z,44.40
2019-06-01T17:11:39.271Z,44.98
2019-06-01T17:14:25.471Z,45.31
2019-06-01T17:17:11.722Z,44.94
2019-06-01T17:19:58.998Z,45.20
2019-06-01T17:22:45.690Z,44.60
2019-06-01T17:25:31.671Z,45.91
2019-06-01T17:28:17.857Z,45.28
2019-06-01T17:31:04.407Z,44.76
2019-06-01T17:33:50.537Z,45.24
2019-06-01T17:36:36.612Z,45.01
2019-06-01T17:39:22.893Z,44.85
2019-06-01T17:42:09.071Z,45.14
2019-06-01T17:44:55.356Z,45.33
2019-06-01T17:47:41.411Z,46.53
2019-06-01T17:50:27.576Z,46.77
2019-06-01T17:53:13.823Z,46.69
2019-06-01T17:55:59.936Z,47.16
2019-06-01T17:58:46.049Z,46.40
2019-06-01T18:01:32.490Z,46.66
2019-06-01T18:04:18.516Z,46.66
2019-06-01T18:07:05.748Z,46.23
2019-06-01T18:09:52.224Z,46.85
2019-06-01T18:12:39.304Z,47.23
2019-06-01T18:15:25.573Z,47.21
2019-06-01T18:18:12.817Z,47.67
2019-06-01T18:20:59.511Z,48.13
2019-06-01T18:23:49.303Z,48.69
2019-06-01T18:26:36.976Z,48.23
2019-06-01T18:29:23.136Z,48.31
2019-06-01T18:32:09.559Z,48.59
2019-06-01T18:34:55.951Z,49.43
2019-06-01T18:37:42.191Z,51.44
2019-06-01T18:40:28.336Z,51.44
2019-06-01T18:43:17.162Z,55.11
2019-06-01T18:46:03.708Z,55.65
2019-06-01T18:48:50.176Z,58.75
2019-06-01T18:51:36.601Z,58.75
2019-06-01T18:54:22.705Z,58.96
2019-06-01T18:57:15.501Z,60.76
2019-06-01T18:59:56.992Z,60.00
2019-06-01T19:02:43.341Z,58.37
2019-06-01T19:05:30.617Z,57.18
2019-06-01T19:08:17.695Z,58.91
2019-06-01T19:11:05.577Z,58.87
2019-06-01T19:13:51.856Z,61.54
2019-06-01T19:16:38.011Z,62.82
2019-06-01T19:19:24.673Z,62.95
2019-06-01T19:22:11.196Z,63.19
2019-06-01T19:24:58.496Z,60.44
2019-06-01T19:27:44.801Z,62.28
2019-06-01T19:30:37.931Z,60.59
2019-06-01T19:33:24.101Z,64.00
2019-06-01T19:36:11.072Z,65.77
2019-06-01T19:38:58.017Z,66.23
2019-06-01T19:41:45.473Z,66.98
2019-06-01T19:44:31.469Z,67.42
2019-06-01T19:47:19.112Z,65.94
2019-06-01T19:50:06.232Z,63.98
2019-06-01T19:52:52.540Z,62.01
2019-06-01T19:55:38.903Z,67.34
2019-06-01T19:58:25.111Z,67.59
2019-06-01T20:01:14.199Z,67.03
2019-06-01T20:04:00.661Z,67.91
2019-06-01T20:06:46.931Z,68.87
2019-06-01T20:09:33.162Z,69.15
2019-06-01T20:12:20.565Z,70.24
2019-06-01T20:15:07.049Z,69.32
2019-06-01T20:17:54.116Z,68.32
2019-06-01T20:20:39.970Z,68.17
2019-06-01T20:23:26.371Z,69.09
2019-06-01T20:26:13.901Z,69.41
2019-06-01T20:29:02.253Z,69.97
2019-06-01T20:31:48.587Z,71.11
2019-06-01T20:34:34.501Z,71.10
2019-06-01T20:37:20.746Z,69.98
2019-06-01T20:40:07.391Z,70.73
2019-06-01T20:42:53.807Z,71.26
2019-06-01T20:45:40.176Z,72.02
2019-06-01T20:48:26.266Z,71.63
2019-06-01T20:51:13.179Z,72.54
2019-06-01T20:53:59.491Z,74.68
2019-06-01T20:56:45.691Z,74.59
2019-06-01T20:59:31.582Z,74.29
2019-06-01T21:02:18.066Z,74.62
2019-06-01T21:05:05.537Z,75.13
2019-06-01T21:07:51.703Z,75.52
2019-06-01T21:10:37.836Z,75.15
2019-06-01T21:13:24.251Z,73.75
2019-06-01T21:16:10.697Z,73.60
2019-06-01T21:18:57.091Z,73.75
2019-06-01T21:21:43.256Z,72.88
2019-06-01T21:24:29.617Z,72.50
2019-06-01T21:27:16.517Z,72.54
2019-06-01T21:30:03.065Z,72.40
2019-06-01T21:32:49.551Z,72.34
2019-06-01T21:35:35.968Z,72.17
2019-06-01T21:38:22.004Z,72.60
2019-06-01T21:41:08.112Z,73.24
2019-06-01T21:43:54.551Z,73.00
2019-06-01T21:46:40.782Z,73.30
2019-06-01T21:49:26.885Z,72.96
2019-06-01T21:52:13.389Z,74.73
2019-06-01T21:54:59.331Z,74.54
2019-06-01T21:57:46.701Z,74.65
2019-06-01T22:00:37.303Z,75.32
2019-06-01T22:03:23.275Z,76.01
2019-06-01T22:06:09.196Z,75.70
2019-06-01T22:08:55.421Z,76.32
2019-06-01T22:11:41.521Z,76.40
2019-06-01T22:14:27.796Z,77.25
2019-06-01T22:17:14.611Z,76.97
2019-06-01T22:20:00.659Z,76.46
2019-06-01T22:22:46.976Z,76.60
2019-06-01T22:25:33.091Z,75.55
2019-06-01T22:28:20.341Z,75.61
2019-06-01T22:31:07.057Z,76.31
2019-06-01T22:33:53.516Z,76.49
2019-06-01T22:36:39.861Z,76.34
2019-06-01T22:39:26.947Z,75.95
2019-06-01T22:42:13.557Z,76.40
2019-06-01T22:45:02.109Z,75.93
2019-06-01T22:47:48.402Z,76.87
2019-06-01T22:50:34.676Z,77.85
2019-06-01T22:53:22.007Z,78.07
2019-06-01T22:56:08.821Z,77.20
2019-06-01T22:58:55.103Z,77.19
2019-06-01T23:01:41.041Z,76.98
2019-06-01T23:04:27.277Z,76.96
2019-06-01T23:07:13.581Z,76.81
2019-06-01T23:09:59.741Z,77.03
2019-06-01T23:12:45.872Z,76.94
2019-06-01T23:15:32.071Z,78.32
2019-06-01T23:18:18.197Z,78.17
2019-06-01T23:21:04.621Z,78.40
2019-06-01T23:23:50.596Z,79.10
2019-06-01T23:26:36.386Z,78.79
2019-06-01T23:29:23.964Z,79.83
2019-06-01T23:32:10.236Z,79.72
2019-06-01T23:34:56.481Z,80.35
2019-06-01T23:37:42.737Z,80.50
2019-06-01T23:40:30.800Z,80.06
2019-06-01T23:43:16.991Z,79.85
2019-06-01T23:46:03.581Z,81.06
2019-06-01T23:48:50.131Z,81.32
2019-06-01T23:51:36.241Z,82.69
2019-06-01T23:54:23.527Z,82.02
2019-06-01T23:57:09.752Z,81.15
2019-06-01T23:59:55.972Z,80.53
